Sligo Airport - TAF
(Terminal Area Forecast)

Issued at 22:36 UTC on Thu. 15-Nov-18

--- METARS(SA) ---

METAR EISG(SLIGO) 152230Z AUTO VRB03KT CAVOK 07/07 Q1014 =

--- TAFS() ---

TAF EISG(SLIGO) 152000Z 1521/1606 18006KT 9999 SCT012 TEMPO

1522/1606 4000 BR BKN008 =

--- SIGMETS(WS) ---

IE - No VALID SIGMETS/Warnings FOR THIS AREA

--- SIGMETS Volcanic(WV) ---

IE - No VALID SIGMETS/Warnings FOR THIS AREA

--- SIGMETS(WS) ---

EGPX SIGMET 05 VALID 151930/152330 EGRR- EGPX

SCOTTISH FIR SEV MTW FCST WI N5559 W00150 - N5523 W00453 - N5641

W00604 - N5936 W00419 - N5951 W00143 - N5838 W00046 - N5559

W00150 FL040/200 STNR WKN=

Sligo Airport - METARs

Latest METARs for Sligo and Donegal Airports - updated every 30 mins